AirNav   Advertisement
 
 1634 users online  

2MO7 Fawn Lake Airport
Warrenton, Missouri, USA

GOING TO WARRENTON?


FAA INFORMATION EFFECTIVE 20 JULY 2017

Location

FAA Identifier: 2MO7
Lat/Long: 38-52-00.0000N / 091-05-10.0000W
38-52.000000N / 091-05.166667W
38.8666667 / -91.0861111
(estimated)
Elevation: 750 ft. / 229 m (estimated)
Variation: 02E (1995)
From city: 5 miles NE of WARRENTON, MO
Time zone: UTC -5 (UTC -6 during Standard Time)
Zip code: 63390

Airport Operations

Airport use: Private use. Permission required prior to landing
Activation date: 07/1997
Control tower: no
ARTCC: KANSAS CITY CENTER
FSS: SAINT LOUIS FLIGHT SERVICE STATION
Attendance: UNATNDD
Segmented circle: no

Airport Communications

WX AWOS-3 at FYG (17 nm S): 121.325 (636-433-5914)

Nearby radio navigation aids

VOR radial/distance  VOR name  Freq  Var
FTZr328/11.7FORISTELL VORTAC110.8005E
STLr270/28.2ST LOUIS VORTAC117.4001E
CSXr281/34.6CARDINAL VOR/DME116.4500E

 
NDB name  Hdg/Dist  Freq  Var  ID
SULLIVAN004/38.035602EUUV ..- ..- ...-

Airport Services

Runway Information

Runway 17/35

Dimensions: 3400 x 50 ft. / 1036 x 15 m
Surface: turf
RUNWAY 17  RUNWAY 35
Traffic pattern: leftleft

Airport Ownership and Management from official FAA records

Ownership: Privately-owned
Owner: C. KOVIAK, INC.
P.O. BOX 1177
LAKE SHERWOOD, MO 63357
Phone 314-398-6399
Manager: CHARLES KOVIAK
P.O. BOX 1177
LAKE SHERWOOD, MO 63357
Phone 314-398-6399

Instrument Procedures

There are no published instrument procedures at 2MO7.

Some nearby airports with instrument procedures:

KFYG - Washington Regional Airport (17 nm S)
KSUS - Spirit of St Louis Airport (24 nm SE)
1H0 - Creve Coeur Airport (28 nm E)
H19 - Bowling Green Municipal Airport (31 nm N)
KSET - St Charles County Smartt Airport (31 nm E)
 
Loc | Ops | Rwys | IFR | FBO | Links
Com | Nav | Svcs | Stats | Notes

Kansas City Aviation Department
 
Area around 2MO7 (Fawn Lake Airport)
 
Road maps at: MapQuest Bing Google
 
Aerial photo
No photo
 
Sectional chart

 
Airport distance calculator
Flying to Fawn Lake Airport? Find the distance to fly.

From to 2MO7

Sunrise and sunset
Times for 25-Jul-2017
 Local
(UTC-5)
 Zulu
(UTC)
Morning civil twilight05:3010:30
Sunrise06:0011:00
Sunset20:2101:21
Evening civil twilight20:5201:52

Current date and time
Zulu (UTC)  25-Jul-2017 16:33:39
Local (UTC-5)  25-Jul-2017 11:33:39
 
METAR
KFYG 
17nm S 
251555Z AUTO 00000KT 10SM 28/23 A3009 RMK AO2
KSUS 
24nm SE 
251554Z 13005KT 10SM FEW250 29/22 A3009 RMK AO2 SLP180 T02890217
KSET 
31nm E 
251554Z AUTO 08006KT 10SM CLR 28/21 A3010 RMK AO2 SLP188 T02830211
KSTL 
34nm E 
251551Z 13007KT 10SM FEW250 29/21 A3011 RMK AO2 SLP183 T02940206
TAF
KSUS 
24nm SE 
251120Z 2512/2612 10005KT P6SM SCT050
NOTAMs
Click for the latest NOTAMs
NOTAMs are issued by the DoD/FAA and will open in a separate window not controlled by AirNav.

 

 
 

Would you like to see your business listed on this page?

 If your business provides an interesting product or service to pilots, flight crews, aircraft, or users of the Fawn Lake Airport, you should consider listing it here.  To start the listing process, click on the button below
 
Add a business
 

Other Pages about Fawn Lake Airport

Update a link
 
Copyright © AirNav, LLC. All rights reserved. Privacy Policy  Contact